Time;durP1;ratioP1;P1;durP2;ratioP2;P2;SDS_P1;SDS_P2;PMS_P1;PMS_P2;Temp;Humidity;BMP_temperature;BMP_pressure;BME280_temperature;BME280_humidity;BME280_pressure;Samples;Min_cycle;Max_cycle;Signal;HPM_P1;HPM_P2
2021/09/26 00:01:47;;;;;;;21.00;13.40;;;;;;;11.40;82.20;98029.09;117071;1177;69828;-72
2021/09/26 00:04:17;;;;;;;20.20;12.10;;;;;;;11.40;82.07;98024.56;117228;1177;69095;-71
2021/09/26 00:06:47;;;;;;;19.60;13.10;;;;;;;11.39;82.40;98019.67;117165;1177;69227;-72
2021/09/26 00:09:16;;;;;;;17.10;11.50;;;;;;;11.39;81.94;98013.27;117163;1177;58716;-71
2021/09/26 00:11:45;;;;;;;18.00;12.10;;;;;;;11.39;81.02;98012.30;117178;1177;58693;-73
2021/09/26 00:14:14;;;;;;;16.80;11.40;;;;;;;11.35;81.41;98009.73;117161;1177;70548;-70
2021/09/26 00:16:44;;;;;;;17.80;11.30;;;;;;;11.30;82.03;98009.66;117159;1176;69259;-72
2021/09/26 00:19:14;;;;;;;17.90;11.60;;;;;;;11.24;81.96;98018.11;116988;1177;69251;-73
2021/09/26 00:21:43;;;;;;;15.10;10.60;;;;;;;11.20;82.38;98024.08;117098;1168;58655;-70
2021/09/26 00:24:14;;;;;;;13.30;9.40;;;;;;;11.13;82.38;98027.79;117122;1177;58752;-71
2021/09/26 00:26:43;;;;;;;15.40;8.60;;;;;;;11.06;82.15;98023.44;117175;1177;69775;-74
2021/09/26 00:29:13;;;;;;;14.00;8.50;;;;;;;11.05;81.62;98023.29;117154;1177;68507;-71
2021/09/26 00:31:42;;;;;;;12.80;8.20;;;;;;;11.04;81.84;98022.91;117133;1177;69191;-74
2021/09/26 00:34:12;;;;;;;11.70;8.00;;;;;;;11.03;82.05;98024.44;117121;1176;58706;-70
2021/09/26 00:36:41;;;;;;;15.90;8.90;;;;;;;11.05;81.95;98020.45;117203;1177;58716;-72
2021/09/26 00:39:11;;;;;;;13.30;8.90;;;;;;;11.06;81.20;98018.67;117173;1177;70582;-70
2021/09/26 00:41:40;;;;;;;13.80;8.40;;;;;;;11.06;81.39;98029.12;117165;1177;69173;-70
2021/09/26 00:44:09;;;;;;;11.70;8.00;;;;;;;11.06;81.45;98025.65;117146;1177;68506;-72
2021/09/26 00:46:39;;;;;;;13.30;8.20;;;;;;;11.03;81.39;98024.36;117136;1176;58717;-71
2021/09/26 00:49:09;;;;;;;16.90;8.90;;;;;;;11.03;81.74;98025.40;117171;1177;58733;-72
2021/09/26 00:51:38;;;;;;;13.20;7.50;;;;;;;11.04;81.53;98028.63;117175;1173;70375;-73
2021/09/26 00:54:07;;;;;;;11.80;8.40;;;;;;;11.03;82.31;98024.20;117049;1177;69315;-71
2021/09/26 00:56:38;;;;;;;13.40;8.20;;;;;;;11.03;82.14;98022.48;117152;1177;68757;-72
2021/09/26 00:59:08;;;;;;;12.20;7.50;;;;;;;11.01;81.77;98021.40;117171;1177;58684;-71
2021/09/26 01:01:38;;;;;;;14.80;8.80;;;;;;;11.01;81.74;98021.00;117186;1174;58661;-72
2021/09/26 01:04:08;;;;;;;19.00;7.60;;;;;;;11.01;81.39;98026.48;117133;1177;70618;-71
2021/09/26 01:06:50;;;;;;;12.00;7.50;;;;;;;10.99;82.48;98026.52;117152;1176;69163;-72
2021/09/26 01:09:39;;;;;;;13.50;7.70;;;;;;;11.00;82.19;98026.50;117208;1177;69463;-73
2021/09/26 01:12:33;;;;;;;12.00;7.90;;;;;;;11.00;82.22;98027.92;117164;1177;58732;-71
2021/09/26 01:15:11;;;;;;;12.70;8.00;;;;;;;10.99;81.75;98030.80;117327;1176;58747;-70
2021/09/26 01:17:55;;;;;;;12.50;7.60;;;;;;;10.97;82.25;98033.77;117062;1177;69761;-71
2021/09/26 01:20:36;;;;;;;11.80;7.60;;;;;;;10.96;82.22;98028.88;117207;1177;68306;-70
2021/09/26 01:23:05;;;;;;;12.10;7.90;;;;;;;10.96;81.95;98028.72;117206;1177;70751;-70
2021/09/26 01:26:12;;;;;;;11.70;7.50;;;;;;;10.95;82.38;98028.02;117200;1176;58732;-73
2021/09/26 01:28:57;;;;;;;12.10;8.40;;;;;;;10.94;81.73;98024.30;117191;1174;58670;-74
2021/09/26 01:31:44;;;;;;;12.20;8.50;;;;;;;10.94;81.88;98031.83;117153;1177;69556;-70
2021/09/26 01:34:19;;;;;;;11.30;7.90;;;;;;;10.95;82.50;98039.27;117131;1177;67535;-71
2021/09/26 01:36:57;;;;;;;13.10;8.00;;;;;;;10.94;83.17;98043.08;117141;1177;68455;-70
2021/09/26 01:39:33;;;;;;;15.40;8.70;;;;;;;10.93;82.73;98039.30;117138;1177;58719;-71
2021/09/26 01:42:11;;;;;;;16.20;11.10;;;;;;;10.92;82.04;98036.70;117184;1177;59069;-70
2021/09/26 01:44:48;;;;;;;19.30;11.50;;;;;;;10.89;81.91;98037.73;117134;1177;69763;-72
2021/09/26 01:47:30;;;;;;;15.10;10.40;;;;;;;10.86;82.06;98035.25;117208;1177;69210;-70
2021/09/26 01:50:03;;;;;;;16.10;10.90;;;;;;;10.86;83.88;98042.23;117179;1176;67917;-70
2021/09/26 01:52:35;;;;;;;17.90;13.00;;;;;;;10.85;83.74;98035.52;117065;1177;58730;-70
2021/09/26 01:55:07;;;;;;;23.60;14.40;;;;;;;10.84;82.89;98031.36;117092;1176;58729;-71
2021/09/26 01:57:41;;;;;;;20.70;12.80;;;;;;;10.80;82.90;98036.35;117204;1177;70465;-72
2021/09/26 02:00:11;;;;;;;18.60;12.10;;;;;;;10.72;83.45;98035.45;117210;1176;69202;-71
2021/09/26 02:02:45;;;;;;;17.40;10.10;;;;;;;10.69;83.17;98041.22;117083;1177;68462;-69
2021/09/26 02:05:18;;;;;;;14.80;8.60;;;;;;;10.65;84.53;98041.15;117176;1177;58671;-72
2021/09/26 02:07:50;;;;;;;17.00;8.70;;;;;;;10.60;84.35;98038.40;117247;1177;58729;-72
2021/09/26 02:10:22;;;;;;;13.90;9.30;;;;;;;10.53;84.38;98035.82;117289;1177;70569;-70
2021/09/26 02:12:53;;;;;;;20.70;10.60;;;;;;;10.50;84.17;98038.18;117239;1177;69069;-70
2021/09/26 02:15:26;;;;;;;15.10;10.30;;;;;;;10.50;84.98;98042.30;117162;1176;69132;-72
2021/09/26 02:17:58;;;;;;;18.30;10.00;;;;;;;10.52;84.94;98042.16;117140;1177;58721;-70
2021/09/26 02:20:28;;;;;;;14.80;10.20;;;;;;;10.56;85.04;98043.52;117275;1176;58653;-73
2021/09/26 02:22:59;;;;;;;15.30;9.80;;;;;;;10.59;84.27;98045.77;117175;1177;70370;-73
2021/09/26 02:25:29;;;;;;;17.30;9.00;;;;;;;10.63;84.08;98043.90;117164;1177;68962;-72
2021/09/26 02:27:59;;;;;;;17.30;11.60;;;;;;;10.65;84.66;98037.81;117130;1177;69220;-73
2021/09/26 02:30:29;;;;;;;17.40;11.50;;;;;;;10.66;83.97;98032.50;116972;1177;58647;-73
2021/09/26 02:32:59;;;;;;;18.40;11.90;;;;;;;10.66;83.39;98035.35;117099;1176;58725;-71
2021/09/26 02:35:28;;;;;;;15.70;11.70;;;;;;;10.66;83.81;98034.09;117155;1177;69760;-74
2021/09/26 02:37:58;;;;;;;22.70;12.60;;;;;;;10.66;85.02;98038.05;117188;1177;69003;-75
2021/09/26 02:40:28;;;;;;;12.90;7.10;;;;;;;10.65;84.74;98035.21;117072;1177;69228;-74
2021/09/26 02:43:12;;;;;;;12.60;8.10;;;;;;;10.64;84.27;98031.91;117135;1177;59116;-73
2021/09/26 02:45:47;;;;;;;12.90;8.90;;;;;;;10.62;84.07;98028.33;117117;1177;58681;-73
2021/09/26 02:48:21;;;;;;;13.90;9.50;;;;;;;10.62;83.73;98032.77;117077;1176;70560;-74
2021/09/26 02:50:51;;;;;;;15.50;9.80;;;;;;;10.63;83.68;98031.80;117216;1177;70075;-72
2021/09/26 02:53:21;;;;;;;14.60;9.90;;;;;;;10.63;83.56;98033.84;117146;1177;68432;-68
2021/09/26 02:55:52;;;;;;;14.70;10.10;;;;;;;10.61;83.76;98040.52;117186;1177;58681;-75
2021/09/26 02:58:22;;;;;;;14.40;9.20;;;;;;;10.60;84.39;98046.32;117239;1177;58726;-72
2021/09/26 03:00:52;;;;;;;13.60;9.60;;;;;;;10.59;85.79;98044.81;117128;1177;70551;-72
2021/09/26 03:03:30;;;;;;;12.60;8.80;;;;;;;10.61;84.95;98050.73;117041;1177;68420;-73
2021/09/26 03:06:08;;;;;;;12.10;7.90;;;;;;;10.65;84.91;98051.45;117100;1177;68822;-73
2021/09/26 03:08:44;;;;;;;12.90;8.40;;;;;;;10.67;85.67;98052.75;117159;1177;58749;-73
2021/09/26 03:11:24;;;;;;;11.40;8.20;;;;;;;10.70;84.64;98053.31;117186;1176;58725;-71
2021/09/26 03:13:54;;;;;;;17.00;8.60;;;;;;;10.72;84.04;98055.09;117210;1177;69812;-74
2021/09/26 03:16:36;;;;;;;15.10;9.70;;;;;;;10.74;84.06;98051.40;117032;1177;69190;-71
2021/09/26 03:19:06;;;;;;;12.20;8.50;;;;;;;10.75;83.83;98054.14;117064;1176;68382;-70
2021/09/26 03:21:35;;;;;;;11.50;7.40;;;;;;;10.78;83.63;98052.92;117124;1177;58700;-74
2021/09/26 03:24:05;;;;;;;12.00;7.20;;;;;;;10.80;83.75;98050.27;117095;1176;58690;-70
2021/09/26 03:26:34;;;;;;;9.80;6.60;;;;;;;10.80;84.24;98053.11;117133;1177;70593;-73
2021/09/26 03:29:04;;;;;;;10.70;7.20;;;;;;;10.82;84.56;98054.44;117045;1176;69014;-71
2021/09/26 03:31:34;;;;;;;11.50;7.30;;;;;;;10.83;84.55;98054.64;117060;1177;68403;-72
2021/09/26 03:34:04;;;;;;;9.60;6.50;;;;;;;10.83;84.85;98056.15;117071;1177;59167;-71
2021/09/26 03:36:35;;;;;;;10.30;7.00;;;;;;;10.84;84.38;98053.98;117061;1176;58694;-74
2021/09/26 03:39:16;;;;;;;12.20;7.70;;;;;;;10.86;84.08;98049.98;117160;1176;70565;-71
2021/09/26 03:41:45;;;;;;;15.30;9.00;;;;;;;10.86;84.05;98047.98;117122;1176;67564;-71
2021/09/26 03:44:15;;;;;;;14.20;8.80;;;;;;;10.85;83.99;98056.02;117085;1177;69070;-74
2021/09/26 03:46:45;;;;;;;13.70;9.20;;;;;;;10.84;83.78;98057.46;117023;1177;58720;-70
2021/09/26 03:49:14;;;;;;;13.10;9.20;;;;;;;10.82;84.01;98056.95;117102;1177;58659;-73
2021/09/26 03:51:50;;;;;;;15.20;10.20;;;;;;;10.79;83.84;98052.98;117061;1176;70591;-75
2021/09/26 03:54:20;;;;;;;12.40;9.10;;;;;;;10.75;84.35;98056.30;116986;1177;69192;-73
2021/09/26 03:56:50;;;;;;;13.20;8.80;;;;;;;10.75;84.34;98056.38;117092;1176;68459;-74
2021/09/26 03:59:21;;;;;;;13.00;8.30;;;;;;;10.76;84.59;98049.86;117171;1177;58716;-72
2021/09/26 04:01:50;;;;;;;15.00;9.00;;;;;;;10.77;84.51;98056.25;117164;1177;58726;-74
2021/09/26 04:04:20;;;;;;;12.50;8.90;;;;;;;10.79;84.28;98057.83;117073;1177;70409;-74
2021/09/26 04:06:50;;;;;;;13.80;8.70;;;;;;;10.79;84.41;98055.98;117123;1177;69182;-72
2021/09/26 04:09:19;;;;;;;12.80;8.70;;;;;;;10.79;83.91;98054.32;117151;1177;69925;-71
2021/09/26 04:11:48;;;;;;;13.30;9.90;;;;;;;10.80;85.07;98055.81;117109;1177;57697;-70
2021/09/26 04:14:18;;;;;;;12.80;8.30;;;;;;;10.82;84.52;98055.70;117060;1177;58774;-74
2021/09/26 04:16:49;;;;;;;13.30;11.00;;;;;;;10.83;84.63;98054.88;117150;1176;69773;-72
2021/09/26 04:19:19;;;;;;;17.80;10.30;;;;;;;10.84;84.08;98055.09;117038;1177;69293;-70
2021/09/26 04:21:50;;;;;;;12.10;9.00;;;;;;;10.83;84.97;98059.07;117116;1177;69217;-70
2021/09/26 04:24:20;;;;;;;11.40;8.00;;;;;;;10.83;84.87;98054.48;117071;1176;58643;-74
2021/09/26 04:26:54;;;;;;;13.80;9.40;;;;;;;10.82;85.67;98057.03;116985;1176;58639;-74
2021/09/26 04:29:28;;;;;;;13.00;9.60;;;;;;;10.82;85.62;98058.54;117213;1177;69783;-69
2021/09/26 04:31:57;;;;;;;17.30;9.50;;;;;;;10.84;85.02;98059.91;117046;1177;70156;-72
2021/09/26 04:34:27;;;;;;;16.80;10.60;;;;;;;10.87;85.85;98065.23;116997;1177;69504;-77
2021/09/26 04:36:56;;;;;;;17.60;11.50;;;;;;;10.89;85.51;98067.88;117046;1177;58711;-71
2021/09/26 04:39:25;;;;;;;15.00;11.40;;;;;;;10.93;85.21;98065.11;117010;1176;58722;-70
2021/09/26 04:41:55;;;;;;;19.80;13.90;;;;;;;10.97;84.72;98060.77;117120;1176;70548;-70
2021/09/26 04:44:25;;;;;;;17.10;13.00;;;;;;;10.97;84.57;98061.63;117225;1177;69264;-73
2021/09/26 04:46:54;;;;;;;16.50;11.80;;;;;;;10.99;84.58;98065.15;117041;1176;70879;-71
2021/09/26 04:49:28;;;;;;;12.50;9.10;;;;;;;11.03;85.29;98067.11;117140;1177;58716;-74
2021/09/26 04:51:59;;;;;;;13.70;9.20;;;;;;;11.06;85.27;98064.45;117225;1177;58694;-71
2021/09/26 04:54:28;;;;;;;16.60;10.40;;;;;;;11.10;85.31;98068.95;117264;1177;71009;-75
2021/09/26 04:56:58;;;;;;;11.70;8.50;;;;;;;11.16;85.09;98069.62;117194;1177;69244;-73
2021/09/26 04:59:28;;;;;;;12.30;9.00;;;;;;;11.20;85.16;98067.23;117044;1180;68485;-75
2021/09/26 05:01:57;;;;;;;11.60;8.00;;;;;;;11.25;84.50;98070.29;117162;1177;58727;-70
2021/09/26 05:04:27;;;;;;;14.20;8.00;;;;;;;11.30;84.45;98069.23;117128;1177;58713;-71
2021/09/26 05:06:57;;;;;;;11.90;7.50;;;;;;;11.36;84.14;98072.92;117079;1177;70523;-72
2021/09/26 05:09:27;;;;;;;16.00;8.70;;;;;;;11.42;83.76;98070.23;117033;1177;69254;-71
2021/09/26 05:11:56;;;;;;;16.40;11.70;;;;;;;11.49;83.63;98071.83;117140;1177;68944;-72
2021/09/26 05:14:25;;;;;;;18.60;12.30;;;;;;;11.56;83.48;98073.34;117235;1177;58716;-70
2021/09/26 05:16:56;;;;;;;18.60;13.80;;;;;;;11.62;83.49;98071.12;117183;1177;58729;-70
2021/09/26 05:19:46;;;;;;;21.00;14.50;;;;;;;11.69;83.45;98072.10;117054;1177;71420;-70
2021/09/26 05:22:15;;;;;;;20.60;16.30;;;;;;;11.74;83.22;98072.91;116982;1177;69256;-73
2021/09/26 05:24:44;;;;;;;23.40;15.50;;;;;;;11.77;83.02;98079.02;117013;1177;69281;-74
2021/09/26 05:27:13;;;;;;;20.90;14.60;;;;;;;11.80;83.17;98081.17;117003;1177;58732;-74
2021/09/26 05:29:42;;;;;;;24.40;15.00;;;;;;;11.87;83.64;98079.36;117125;1177;58750;-73
2021/09/26 05:32:11;;;;;;;19.10;13.30;;;;;;;11.97;83.41;98078.86;117082;1176;69385;-71
2021/09/26 05:34:40;;;;;;;15.70;11.30;;;;;;;12.08;83.26;98085.28;117184;1177;68494;-73
2021/09/26 05:37:09;;;;;;;17.10;11.20;;;;;;;12.18;83.42;98084.94;117148;1176;69323;-72
2021/09/26 05:39:39;;;;;;;14.40;10.30;;;;;;;12.28;83.10;98082.63;117139;1177;58733;-74
2021/09/26 05:42:08;;;;;;;17.30;11.20;;;;;;;12.37;82.36;98075.96;117166;1177;58786;-70
2021/09/26 05:44:37;;;;;;;16.50;12.10;;;;;;;12.45;82.03;98083.61;117107;1177;70705;-70
2021/09/26 05:47:07;;;;;;;22.90;12.50;;;;;;;12.58;82.97;98086.30;116921;1177;69619;-73
2021/09/26 05:49:37;;;;;;;15.50;12.30;;;;;;;12.76;82.54;98088.17;117097;1176;69273;-74
2021/09/26 05:52:08;;;;;;;11.40;8.20;;;;;;;12.91;81.19;98088.06;117119;1177;58799;-73
2021/09/26 05:54:41;;;;;;;16.60;8.40;;;;;;;13.09;80.04;98090.52;117058;1179;58661;-72
2021/09/26 05:57:10;;;;;;;14.50;7.80;;;;;;;13.25;78.86;98089.98;117017;1177;69938;-70
2021/09/26 05:59:39;;;;;;;14.80;7.90;;;;;;;13.44;77.65;98092.98;117028;1177;68536;-73
2021/09/26 06:02:10;;;;;;;16.20;7.50;;;;;;;13.60;77.17;98094.98;117122;1177;69274;-71
2021/09/26 06:04:39;;;;;;;11.90;7.00;;;;;;;13.78;75.18;98098.48;116957;1178;58880;-73
2021/09/26 06:07:08;;;;;;;12.70;7.40;;;;;;;13.99;76.24;98098.36;117107;1176;58723;-72
2021/09/26 06:09:37;;;;;;;10.10;6.20;;;;;;;14.22;73.84;98097.52;117145;1177;69829;-73
2021/09/26 06:12:07;;;;;;;9.20;6.30;;;;;;;14.40;72.57;98102.58;117092;1173;68446;-73
2021/09/26 06:14:36;;;;;;;10.20;6.10;;;;;;;14.60;73.03;98101.04;117028;1177;68804;-73
2021/09/26 06:17:06;;;;;;;9.20;5.50;;;;;;;14.80;73.01;98101.55;117036;1177;58786;-74
2021/09/26 06:19:35;;;;;;;10.80;6.20;;;;;;;14.87;70.78;98101.59;117002;1176;58698;-73
2021/09/26 06:22:07;;;;;;;9.30;6.30;;;;;;;14.98;69.97;98100.16;116993;1170;70654;-74
2021/09/26 06:24:36;;;;;;;10.80;6.30;;;;;;;15.15;70.22;98104.50;117032;1177;69077;-74
2021/09/26 06:27:05;;;;;;;12.40;6.50;;;;;;;15.27;70.10;98103.46;116960;1177;68363;-73
2021/09/26 06:29:37;;;;;;;10.10;6.80;;;;;;;15.41;69.83;98102.95;117114;1177;58724;-74
2021/09/26 06:32:08;;;;;;;11.50;6.90;;;;;;;15.61;69.53;98099.76;117020;1177;58658;-72
2021/09/26 06:34:39;;;;;;;;;;;;;;;15.70;68.72;98104.50;116989;1177;70349;-74
2021/09/26 06:37:07;;;;;;;8.90;6.00;;;;;;;15.78;68.12;98103.54;116991;1177;69382;-74
2021/09/26 06:39:40;;;;;;;11.30;5.80;;;;;;;15.91;68.52;98106.87;116872;1177;69295;-74
2021/09/26 06:42:09;;;;;;;8.40;5.60;;;;;;;15.97;67.65;98106.21;116965;1176;58731;-74
2021/09/26 06:44:38;;;;;;;12.20;5.70;;;;;;;16.01;66.76;98112.04;116932;1177;58765;-74
2021/09/26 06:47:06;;;;;;;9.50;6.00;;;;;;;15.92;66.69;98117.83;116906;1177;70827;-72
2021/09/26 06:49:35;;;;;;;8.60;5.50;;;;;;;16.14;67.04;98119.36;116965;1177;69358;-74
2021/09/26 06:52:04;;;;;;;13.40;5.90;;;;;;;16.18;66.62;98117.59;116973;1177;69346;-72
2021/09/26 06:54:33;;;;;;;9.40;5.70;;;;;;;16.24;66.39;98117.56;116973;1178;58707;-72
2021/09/26 06:57:03;;;;;;;12.80;5.60;;;;;;;16.32;64.81;98118.35;117039;1177;58737;-73
2021/09/26 06:59:32;;;;;;;8.50;5.50;;;;;;;16.53;64.41;98117.06;116961;1177;70599;-73
2021/09/26 07:02:01;;;;;;;8.60;5.30;;;;;;;16.71;64.88;98116.35;117187;1177;69214;-73
2021/09/26 07:04:31;;;;;;;10.10;5.70;;;;;;;17.10;64.49;98118.26;117041;1177;69208;-74
2021/09/26 07:07:00;;;;;;;12.30;5.70;;;;;;;17.40;62.64;98119.30;117108;1177;58745;-72
2021/09/26 07:09:29;;;;;;;12.90;5.30;;;;;;;17.51;62.15;98121.57;117093;1177;58706;-75
2021/09/26 07:11:57;;;;;;;8.90;5.30;;;;;;;17.70;61.49;98120.70;117147;1176;71173;-74
2021/09/26 07:14:27;;;;;;;9.00;5.20;;;;;;;17.95;61.36;98117.45;117018;1177;69297;-74
2021/09/26 07:16:56;;;;;;;8.40;4.90;;;;;;;18.23;60.42;98120.57;117127;1177;69851;-76
2021/09/26 07:19:25;;;;;;;11.90;5.10;;;;;;;18.54;60.06;98126.44;117060;1173;58754;-73
2021/09/26 07:21:54;;;;;;;10.40;5.40;;;;;;;18.72;57.74;98128.25;117113;1177;58642;-74
2021/09/26 07:24:23;;;;;;;10.40;5.50;;;;;;;18.50;58.08;98130.35;117120;1177;69747;-73
2021/09/26 07:26:52;;;;;;;8.80;5.00;;;;;;;18.20;58.83;98131.23;117028;1177;69207;-74
2021/09/26 07:29:21;;;;;;;9.50;5.00;;;;;;;18.17;58.52;98129.36;117060;1177;69297;-74
2021/09/26 07:31:50;;;;;;;7.70;4.90;;;;;;;17.95;59.69;98132.42;117076;1177;58771;-73
2021/09/26 07:34:19;;;;;;;8.90;5.10;;;;;;;18.01;59.18;98133.58;117135;1177;59116;-74
2021/09/26 07:36:48;;;;;;;9.30;5.50;;;;;;;18.22;59.04;98131.91;117052;1177;70601;-74
2021/09/26 07:39:17;;;;;;;9.10;5.40;;;;;;;18.26;57.92;98135.95;116963;1177;69247;-73
2021/09/26 07:41:50;;;;;;;9.20;5.10;;;;;;;18.18;58.51;98135.40;117253;1177;67747;-72
2021/09/26 07:44:19;;;;;;;8.10;5.00;;;;;;;18.45;58.10;98133.82;116883;1177;58732;-72
2021/09/26 07:46:48;;;;;;;9.80;5.10;;;;;;;19.14;56.88;98133.40;117030;1176;58719;-73
2021/09/26 07:49:17;;;;;;;9.30;4.80;;;;;;;19.30;55.86;98133.55;117067;1177;70653;-73
2021/09/26 07:51:46;;;;;;;7.80;4.30;;;;;;;19.85;54.63;98135.20;116968;1177;69350;-75
2021/09/26 07:54:16;;;;;;;7.80;5.00;;;;;;;20.21;53.49;98128.60;116886;1180;68461;-74
2021/09/26 07:56:46;;;;;;;;;;;;;;;20.82;52.70;98130.77;117041;1177;58699;-71
2021/09/26 07:59:15;;;;;;;8.40;4.70;;;;;;;21.41;50.15;98131.28;117145;1176;59096;-74
2021/09/26 08:01:44;;;;;;;6.70;4.20;;;;;;;21.71;49.62;98130.99;116965;1177;69822;-74
2021/09/26 08:04:14;;;;;;;6.50;4.20;;;;;;;22.14;48.41;98129.30;117020;1177;69044;-73
2021/09/26 08:06:44;;;;;;;9.30;4.50;;;;;;;22.55;48.22;98127.46;116948;1177;68884;-74
2021/09/26 08:09:14;;;;;;;8.00;4.40;;;;;;;23.22;47.12;98128.84;116821;1177;58767;-74
2021/09/26 08:11:45;;;;;;;7.20;4.20;;;;;;;23.88;45.39;98129.94;117087;1177;59164;-76
2021/09/26 08:14:15;;;;;;;8.20;4.10;;;;;;;24.35;43.70;98129.88;117008;1177;70589;-73
2021/09/26 08:16:44;;;;;;;8.60;3.80;;;;;;;24.65;42.96;98129.91;116977;1177;69228;-72
2021/09/26 08:19:13;;;;;;;8.30;4.00;;;;;;;24.90;41.86;98127.09;116969;1177;69424;-73
2021/09/26 08:21:42;;;;;;;10.00;4.00;;;;;;;24.87;40.82;98127.94;116984;1177;58707;-74
2021/09/26 08:24:14;;;;;;;8.90;4.20;;;;;;;24.90;40.99;98124.73;117003;1177;58796;-75
2021/09/26 08:26:50;;;;;;;6.10;3.90;;;;;;;25.53;40.05;98125.80;116940;1177;72105;-75
2021/09/26 08:29:22;;;;;;;6.80;3.70;;;;;;;25.12;39.66;98126.58;116803;1180;68595;-75
2021/09/26 08:31:51;;;;;;;9.10;3.70;;;;;;;24.93;40.55;98121.39;117015;1177;69129;-72
2021/09/26 08:34:21;;;;;;;6.90;3.90;;;;;;;25.65;39.04;98117.15;117020;1177;58739;-75
2021/09/26 08:36:52;;;;;;;7.60;4.00;;;;;;;25.67;39.34;98113.90;116990;1169;58725;-76
2021/09/26 08:39:21;;;;;;;6.00;3.70;;;;;;;25.86;39.13;98112.53;117100;1176;68714;-78
2021/09/26 08:41:52;;;;;;;8.40;3.30;;;;;;;26.64;38.39;98115.09;117054;1177;69335;-73
2021/09/26 08:44:26;;;;;;;6.10;3.80;;;;;;;27.02;36.94;98111.66;117083;1176;68400;-73
2021/09/26 08:46:56;;;;;;;7.30;3.70;;;;;;;26.96;36.82;98111.63;117043;1177;58945;-74
2021/09/26 08:49:27;;;;;;;7.90;3.80;;;;;;;27.38;35.78;98110.04;117088;1177;58790;-72
2021/09/26 08:51:57;;;;;;;7.90;3.70;;;;;;;27.57;35.64;98104.70;116980;1177;69803;-72
2021/09/26 08:54:26;;;;;;;5.80;3.50;;;;;;;27.27;36.25;98105.23;117174;1177;69226;-73
2021/09/26 08:56:55;;;;;;;8.80;3.50;;;;;;;27.50;35.74;98107.69;116961;1177;69350;-73
2021/09/26 08:59:24;;;;;;;7.90;3.70;;;;;;;27.79;34.47;98102.88;116973;1177;59173;-72
2021/09/26 09:01:54;;;;;;;4.90;3.50;;;;;;;27.27;34.51;98099.34;117156;1176;58668;-73
2021/09/26 09:04:37;;;;;;;5.40;3.80;;;;;;;26.38;36.27;98100.55;117006;1177;69610;-74
2021/09/26 09:07:09;;;;;;;6.80;3.30;;;;;;;25.87;37.49;98095.84;117034;1177;69947;-74
2021/09/26 09:09:58;;;;;;;5.70;3.70;;;;;;;26.49;36.57;98099.91;117161;1177;68453;-73
2021/09/26 09:12:31;;;;;;;7.10;3.40;;;;;;;26.99;35.54;98095.98;117197;1176;58722;-73
2021/09/26 09:15:15;;;;;;;6.40;4.00;;;;;;;27.43;35.05;98096.98;117342;1176;58694;-73
2021/09/26 09:17:44;;;;;;;5.30;3.60;;;;;;;27.96;34.17;98093.44;117240;1177;69810;-74
2021/09/26 09:20:19;;;;;;;;;;;;;;;27.51;34.25;98089.47;117092;1177;69000;-73
2021/09/26 09:22:57;;;;;;;6.00;3.70;;;;;;;28.02;34.13;98094.25;117213;1170;69250;-71
2021/09/26 09:25:43;;;;;;;10.10;3.70;;;;;;;29.15;32.34;98092.67;117032;1177;58774;-73
2021/09/26 09:28:31;;;;;;;6.70;4.00;;;;;;;29.16;31.32;98096.44;116986;1177;58736;-72
2021/09/26 09:31:03;;;;;;;8.30;3.40;;;;;;;28.73;31.72;98092.30;117375;1177;70626;-72
2021/09/26 09:33:41;;;;;;;4.70;3.20;;;;;;;29.11;31.77;98093.32;117203;1177;68548;-73
2021/09/26 09:36:32;;;;;;;4.90;3.60;;;;;;;28.95;32.38;98092.92;117116;1176;69739;-72
2021/09/26 09:39:06;;;;;;;5.00;3.00;;;;;;;29.84;30.29;98089.48;117150;1176;58732;-72
2021/09/26 09:41:45;;;;;;;5.00;3.40;;;;;;;29.04;32.99;98095.48;117040;1176;58783;-71
2021/09/26 09:44:35;;;;;;;5.90;3.40;;;;;;;29.97;30.94;98089.38;116982;1177;69627;-72
2021/09/26 09:47:14;;;;;;;6.30;3.90;;;;;;;30.40;29.16;98087.10;117024;1177;70528;-74
2021/09/26 09:49:57;;;;;;;6.10;3.20;;;;;;;30.30;29.25;98083.48;117109;1177;69224;-73
2021/09/26 09:52:52;;;;;;;5.20;3.20;;;;;;;30.20;29.17;98083.61;117106;1177;58898;-72
2021/09/26 09:55:29;;;;;;;5.20;3.30;;;;;;;30.20;29.56;98078.47;117137;1176;58784;-74
2021/09/26 09:58:14;;;;;;;4.20;3.10;;;;;;;30.09;29.57;98074.20;117195;1176;70403;-74
2021/09/26 10:00:51;;;;;;;6.10;3.20;;;;;;;30.36;28.74;98075.84;117226;1176;69132;-74
2021/09/26 10:03:36;;;;;;;4.40;3.10;;;;;;;30.07;28.96;98074.84;117034;1177;69332;-74
2021/09/26 10:06:28;;;;;;;6.00;3.00;;;;;;;30.72;28.09;98073.14;117168;1177;58728;-74
2021/09/26 10:09:00;;;;;;;7.70;3.20;;;;;;;30.62;28.17;98074.88;117178;1177;58714;-74
2021/09/26 10:11:30;;;;;;;4.50;2.90;;;;;;;30.58;27.52;98076.44;116965;1169;71075;-74
2021/09/26 10:14:00;;;;;;;3.80;3.00;;;;;;;29.41;29.19;98076.76;117025;1177;69256;-75
2021/09/26 10:16:30;;;;;;;5.80;3.20;;;;;;;29.21;29.17;98079.58;117129;1177;69170;-74
2021/09/26 10:18:59;;;;;;;4.20;2.80;;;;;;;29.10;30.19;98072.04;117173;1176;58723;-74
2021/09/26 10:21:30;;;;;;;4.60;2.70;;;;;;;29.82;29.91;98065.85;117172;1177;58722;-72
2021/09/26 10:23:59;;;;;;;5.60;3.10;;;;;;;30.76;27.97;98064.80;117103;1177;70632;-73
2021/09/26 10:26:29;;;;;;;4.80;3.00;;;;;;;30.88;27.98;98062.19;117166;1176;69389;-72
2021/09/26 10:29:00;;;;;;;4.70;3.10;;;;;;;31.01;27.28;98057.66;117082;1177;68504;-73
2021/09/26 10:31:29;;;;;;;3.90;3.00;;;;;;;31.32;26.56;98052.94;117083;1177;58732;-72
2021/09/26 10:34:04;;;;;;;5.90;3.10;;;;;;;31.63;26.20;98047.81;117249;1177;58729;-74
2021/09/26 10:36:35;;;;;;;5.10;3.00;;;;;;;31.77;25.15;98042.58;117082;1176;70673;-73
2021/09/26 10:39:06;;;;;;;4.20;2.80;;;;;;;32.16;25.36;98044.42;117053;1177;69257;-74
2021/09/26 10:41:36;;;;;;;6.60;2.90;;;;;;;32.13;25.13;98042.98;117146;1177;69360;-73
2021/09/26 10:44:22;;;;;;;4.20;3.00;;;;;;;32.27;24.71;98039.39;117174;1177;58732;-72
2021/09/26 10:47:11;;;;;;;4.40;2.80;;;;;;;32.34;24.99;98041.27;117076;1177;58710;-72
2021/09/26 10:49:43;;;;;;;8.50;3.30;;;;;;;31.99;24.92;98039.50;117005;1176;70780;-74
2021/09/26 10:52:37;;;;;;;4.60;3.00;;;;;;;30.82;26.15;98032.94;117135;1176;69095;-73
2021/09/26 10:55:15;;;;;;;4.10;2.80;;;;;;;29.91;27.40;98031.95;117113;1176;69378;-73
2021/09/26 10:58:13;;;;;;;5.70;3.10;;;;;;;30.37;27.78;98026.69;117065;1177;58736;-75
2021/09/26 11:00:44;;;;;;;5.60;3.20;;;;;;;30.60;27.09;98023.23;117005;1177;58672;-74
2021/09/26 11:03:19;;;;;;;4.70;3.20;;;;;;;30.45;27.56;98016.55;117198;1176;70682;-75
2021/09/26 11:05:50;;;;;;;5.20;3.20;;;;;;;29.81;28.16;98012.63;117151;1177;69280;-74
2021/09/26 11:08:25;;;;;;;7.00;3.10;;;;;;;29.11;28.72;98010.33;117150;1177;69196;-74
2021/09/26 11:10:57;;;;;;;5.00;3.40;;;;;;;28.35;29.46;98015.23;117111;1177;58668;-75
2021/09/26 11:13:29;;;;;;;5.80;3.70;;;;;;;27.53;30.80;98010.64;117214;1177;58639;-74
2021/09/26 11:16:03;;;;;;;6.20;3.20;;;;;;;27.05;31.32;98012.19;117279;1177;70580;-73
2021/09/26 11:18:47;;;;;;;5.30;3.20;;;;;;;26.12;33.42;98010.91;117107;1177;69221;-73
2021/09/26 11:21:35;;;;;;;6.40;3.90;;;;;;;25.84;35.89;98008.67;117166;1177;69203;-72
2021/09/26 11:24:07;;;;;;;6.10;3.60;;;;;;;25.83;36.72;98006.16;117141;1176;58720;-73
2021/09/26 11:27:03;;;;;;;6.10;3.80;;;;;;;25.74;36.87;98004.29;117098;1177;58699;-74
2021/09/26 11:29:38;;;;;;;5.80;4.00;;;;;;;25.78;37.06;98001.52;117150;1176;70495;-72
2021/09/26 11:32:27;;;;;;;6.40;3.70;;;;;;;25.86;36.65;98003.80;117153;1177;69177;-73
2021/09/26 11:34:58;;;;;;;5.30;3.80;;;;;;;25.93;37.10;98001.36;117185;1177;68311;-73
2021/09/26 11:37:36;;;;;;;7.60;4.00;;;;;;;25.91;37.33;97998.70;117164;1176;59110;-74
2021/09/26 11:40:11;;;;;;;5.90;3.50;;;;;;;25.78;36.69;97995.05;117019;1177;58746;-73
2021/09/26 11:42:44;;;;;;;6.00;3.70;;;;;;;26.30;36.37;97991.98;117118;1176;70642;-74
2021/09/26 11:45:15;;;;;;;6.40;3.70;;;;;;;27.10;34.72;97990.63;117181;1176;68817;-73